首页
METAR-TAF:

METAR-TAF

机场 :

伊斯兰堡, 巴基斯坦

贝娜齐尔·布托国际机场

纬度: 33-37N, 经度: 073-06E, 海拔: 507米

当前天气观测

该预报发布于52分钟前的02:30 UTC
静风
温度 5°C
湿度 87%
气压 1017 hPa
能見度: 3500
轻雾

METAR: OPRN 200230Z 00000KT 3500 BR NSC 05/03 Q1017 A30.05 TEMPO 2000

时间: 08:22 (03:22 UTC)

预报

该预报发布于6小时和52分钟前的20:30 UTC
预报有效从20日的 00点(UTC)到 21日的 06点(UTC)
风速4节,风向北转东北
能見度: 4000
短暂存在
从 20日的 02点(UTC)到 20日的 06点(UTC)
轻雾
成为
从 20日的 06点(UTC)到 20日的 08点(UTC)
风速10节,风向西转西南,有时为20节阵风
能見度: 6000
成为
从 20日的 12点(UTC)到 20日的 14点(UTC)
风速10节,风向西转西北
能見度: 4000
短暂存在
从 21日的 02点(UTC)到 21日的 06点(UTC)
能見度: 2000

TAF: OPRN 192030Z 2000/2106 03004KT 4000 HZ NSC TEMPO 2002/2006 200 BR BECMG 2006/2008 24010G20KT 6000 BECMG 2012/2014 30010KT 4000 HZ TEMPO 2102/2106 2000

超过4000个机场的气象观测和天气预报(METAR&TAF报告)。

可查询的气象台以黄色和红色小点在地图上表示。

将鼠标移到小点上方,可查看气象台名称。

然后点击查看天气观测和预报。

如需切换地图:点击带黑十字的绿色按钮放大地图;点击带横线的绿色按钮缩小地图;或者点击绿色箭头查看邻近地区的地图。


METAR-TAF: